createdAt,value
2022-12-03T00:00:12.786Z,8.73
2022-12-03T00:03:55.268Z,8.60
2022-12-03T00:07:37.407Z,8.40
2022-12-03T00:11:19.318Z,9.35
2022-12-03T00:15:01.223Z,9.43
2022-12-03T00:18:43.102Z,8.03
2022-12-03T00:22:25.251Z,8.20
2022-12-03T00:26:07.117Z,8.18
2022-12-03T00:29:49.015Z,7.80
2022-12-03T00:33:31.330Z,7.45
2022-12-03T00:37:13.730Z,8.63
2022-12-03T00:40:55.928Z,8.13
2022-12-03T00:44:37.850Z,7.97
2022-12-03T00:48:19.702Z,8.73
2022-12-03T00:52:01.605Z,6.97
2022-12-03T00:55:43.618Z,7.00
2022-12-03T00:59:25.623Z,4.95
2022-12-03T01:03:07.592Z,7.32
2022-12-03T01:06:49.457Z,7.17
2022-12-03T01:10:31.344Z,5.97
2022-12-03T01:14:19.746Z,5.82
2022-12-03T01:18:01.761Z,6.40
2022-12-03T01:21:45.359Z,5.27
2022-12-03T01:25:27.208Z,6.72
2022-12-03T01:29:09.123Z,6.57
2022-12-03T01:32:51.073Z,6.53
2022-12-03T01:36:34.394Z,6.63
2022-12-03T01:40:19.152Z,4.07
2022-12-03T01:44:02.811Z,5.83
2022-12-03T01:47:44.862Z,6.35
2022-12-03T01:51:26.850Z,5.75
2022-12-03T01:55:21.063Z,5.97
2022-12-03T01:59:03.067Z,5.67
2022-12-03T02:02:46.749Z,4.13
2022-12-03T02:06:30.225Z,5.90
2022-12-03T02:10:14.191Z,5.57
2022-12-03T02:14:01.682Z,5.32
2022-12-03T02:17:43.969Z,4.97
2022-12-03T02:21:30.747Z,5.60
2022-12-03T02:25:24.928Z,5.18
2022-12-03T02:29:06.841Z,5.65
2022-12-03T02:32:49.952Z,4.32
2022-12-03T02:36:32.070Z,5.70
2022-12-03T02:40:21.263Z,5.82
2022-12-03T02:44:05.219Z,5.22
2022-12-03T02:47:57.242Z,4.70
2022-12-03T02:51:39.850Z,4.88
2022-12-03T02:55:22.792Z,5.10
2022-12-03T02:59:05.829Z,4.73
2022-12-03T03:02:47.888Z,5.80
2022-12-03T03:06:30.311Z,6.47
2022-12-03T03:10:17.007Z,6.65
2022-12-03T03:14:00.834Z,5.13
2022-12-03T03:17:43.331Z,6.38
2022-12-03T03:21:25.229Z,6.18
2022-12-03T03:25:10.975Z,4.50
2022-12-03T03:28:53.264Z,5.45
2022-12-03T03:32:36.014Z,6.72
2022-12-03T03:36:18.659Z,6.80
2022-12-03T03:40:00.621Z,6.20
2022-12-03T03:43:44.370Z,6.22
2022-12-03T03:47:26.698Z,5.93
2022-12-03T03:51:10.386Z,6.67
2022-12-03T03:54:52.744Z,5.65
2022-12-03T03:58:35.555Z,5.90
2022-12-03T04:02:22.762Z,6.87
2022-12-03T04:06:04.844Z,7.15
2022-12-03T04:09:46.920Z,6.18
2022-12-03T04:13:29.054Z,6.40
2022-12-03T04:17:10.957Z,6.55
2022-12-03T04:21:12.851Z,5.20
2022-12-03T04:25:14.633Z,6.90
2022-12-03T04:28:56.634Z,6.20
2022-12-03T04:32:56.817Z,6.47
2022-12-03T04:36:39.076Z,6.15
2022-12-03T04:40:39.121Z,6.07
2022-12-03T04:44:33.249Z,6.60
2022-12-03T04:48:15.142Z,6.15
2022-12-03T04:51:57.497Z,6.33
2022-12-03T04:55:39.415Z,7.10
2022-12-03T04:59:21.355Z,6.68
2022-12-03T05:03:03.431Z,7.13
2022-12-03T05:06:45.800Z,7.33
2022-12-03T05:10:27.757Z,7.90
2022-12-03T05:14:10.607Z,6.75
2022-12-03T05:17:52.424Z,7.47
2022-12-03T05:21:34.627Z,7.65
2022-12-03T05:25:16.570Z,7.38
2022-12-03T05:28:58.487Z,7.17
2022-12-03T05:32:40.397Z,7.55
2022-12-03T05:36:22.384Z,5.90
2022-12-03T05:40:04.902Z,6.47
2022-12-03T05:43:46.795Z,7.17
2022-12-03T05:47:28.656Z,6.97
2022-12-03T05:51:10.505Z,6.10
2022-12-03T05:54:52.666Z,6.13
2022-12-03T05:58:35.144Z,6.15
2022-12-03T06:02:17.146Z,5.32
2022-12-03T06:05:59.167Z,6.90
2022-12-03T06:09:41.256Z,6.43
2022-12-03T06:13:23.226Z,6.28
2022-12-03T06:17:05.325Z,6.38
2022-12-03T06:20:47.202Z,6.63
2022-12-03T06:24:29.117Z,6.50
2022-12-03T06:28:11.049Z,5.68
2022-12-03T06:31:52.967Z,5.20
2022-12-03T06:35:34.869Z,4.03
2022-12-03T06:39:17.773Z,3.70
2022-12-03T06:42:59.669Z,2.87
2022-12-03T06:46:41.779Z,4.20
2022-12-03T06:50:23.762Z,4.05
2022-12-03T06:54:06.483Z,4.13
2022-12-03T06:57:48.393Z,3.30
2022-12-03T07:01:30.438Z,3.97
2022-12-03T07:05:12.669Z,3.97
2022-12-03T07:08:54.536Z,3.83
2022-12-03T07:12:36.427Z,4.22
2022-12-03T07:16:18.291Z,5.18
2022-12-03T07:20:00.162Z,5.17
2022-12-03T07:23:42.036Z,5.15
2022-12-03T07:27:23.949Z,5.93
2022-12-03T07:31:06.079Z,4.88
2022-12-03T07:34:47.987Z,5.90
2022-12-03T07:38:29.845Z,5.38
2022-12-03T07:42:11.808Z,5.18
2022-12-03T07:45:53.684Z,4.50
2022-12-03T07:49:35.601Z,4.97
2022-12-03T07:53:17.839Z,4.80
2022-12-03T07:57:01.607Z,5.03
2022-12-03T08:00:43.937Z,5.47
2022-12-03T08:04:25.995Z,4.47
2022-12-03T08:08:07.937Z,4.85
2022-12-03T08:11:50.449Z,4.17
2022-12-03T08:15:38.499Z,4.60
2022-12-03T08:19:21.630Z,4.68
2022-12-03T08:23:10.181Z,4.87
2022-12-03T08:27:05.072Z,4.30
2022-12-03T08:35:28.258Z,5.13
2022-12-03T08:39:30.362Z,3.45
2022-12-03T08:43:29.410Z,4.78
2022-12-03T08:47:29.697Z,4.72
2022-12-03T08:51:26.252Z,4.63
2022-12-03T08:55:22.128Z,4.47
2022-12-03T08:59:12.919Z,4.03
2022-12-03T09:03:07.187Z,4.90
2022-12-03T09:06:50.355Z,4.28
2022-12-03T09:10:32.622Z,4.47
2022-12-03T09:14:24.431Z,4.17
2022-12-03T09:18:06.669Z,3.35
2022-12-03T09:21:49.499Z,4.20
2022-12-03T09:25:38.695Z,3.58
2022-12-03T09:29:20.612Z,3.83
2022-12-03T09:33:02.741Z,4.32
2022-12-03T09:37:17.478Z,3.65
2022-12-03T09:41:00.335Z,4.17
2022-12-03T09:44:48.978Z,3.88
2022-12-03T09:48:31.224Z,3.35
2022-12-03T09:52:21.375Z,3.70
2022-12-03T09:56:05.467Z,4.35
2022-12-03T09:59:47.636Z,3.83
2022-12-03T10:03:32.095Z,3.80
2022-12-03T10:07:21.700Z,3.90
2022-12-03T10:11:06.432Z,4.22
2022-12-03T10:14:49.157Z,4.15
2022-12-03T10:18:41.828Z,3.43
2022-12-03T10:22:24.697Z,4.60
2022-12-03T10:26:07.123Z,3.88
2022-12-03T10:30:01.915Z,4.20
2022-12-03T10:33:47.339Z,3.42
2022-12-03T10:38:05.906Z,4.00
2022-12-03T10:41:51.252Z,3.25
2022-12-03T10:46:09.654Z,4.23
2022-12-03T10:50:32.072Z,3.67
2022-12-03T10:54:45.808Z,3.63
2022-12-03T10:58:39.760Z,3.23
2022-12-03T11:02:56.996Z,3.70
2022-12-03T11:06:39.337Z,3.40
2022-12-03T11:10:28.975Z,3.80
2022-12-03T11:14:11.134Z,3.83
2022-12-03T11:17:53.918Z,2.90
2022-12-03T11:21:44.486Z,3.55
2022-12-03T11:25:29.535Z,3.63
2022-12-03T11:33:22.632Z,3.30
2022-12-03T11:37:49.899Z,2.90
2022-12-03T11:41:35.039Z,3.90
2022-12-03T11:45:36.803Z,3.53
2022-12-03T11:49:21.748Z,3.03
2022-12-03T11:53:35.578Z,3.53
2022-12-03T11:57:57.423Z,2.83
2022-12-03T12:01:41.458Z,3.80
2022-12-03T12:05:51.675Z,3.60
2022-12-03T12:27:46.154Z,3.65
2022-12-03T12:31:50.764Z,3.10
2022-12-03T12:35:36.911Z,3.20
2022-12-03T12:39:41.396Z,2.72
2022-12-03T12:43:29.674Z,3.13
2022-12-03T12:51:19.300Z,3.72
2022-12-03T12:55:26.310Z,3.00
2022-12-03T12:59:17.257Z,3.33
2022-12-03T13:03:22.061Z,2.97
2022-12-03T13:07:04.909Z,3.38
2022-12-03T13:11:32.688Z,3.38
2022-12-03T13:16:00.307Z,3.10
2022-12-03T13:23:57.296Z,3.10
2022-12-03T13:28:25.475Z,2.70
2022-12-03T13:32:36.140Z,3.13
2022-12-03T13:36:22.701Z,2.95
2022-12-03T13:40:36.180Z,2.60
2022-12-03T13:44:19.882Z,3.03
2022-12-03T13:48:22.957Z,2.88
2022-12-03T13:52:13.039Z,3.28
2022-12-03T13:56:15.384Z,3.13
2022-12-03T13:59:57.670Z,2.25
2022-12-03T14:04:09.009Z,2.50
2022-12-03T14:07:51.440Z,2.50
2022-12-03T14:12:33.730Z,3.05
2022-12-03T14:16:31.983Z,2.75
2022-12-03T14:20:15.476Z,2.87
2022-12-03T14:24:28.192Z,2.90
2022-12-03T14:28:11.140Z,2.70
2022-12-03T14:35:59.076Z,2.28
2022-12-03T14:43:53.490Z,2.58
2022-12-03T14:51:44.830Z,2.50
2022-12-03T14:55:59.613Z,2.75
2022-12-03T14:59:43.638Z,2.50
2022-12-03T15:07:32.131Z,2.70
2022-12-03T15:11:46.378Z,2.97
2022-12-03T15:15:28.811Z,3.30
2022-12-03T15:23:16.785Z,2.88
2022-12-03T15:27:31.350Z,2.67
2022-12-03T15:31:13.896Z,2.92
2022-12-03T15:39:03.242Z,3.20
2022-12-03T15:46:55.071Z,3.30
2022-12-03T15:51:09.323Z,3.37
2022-12-03T15:54:53.302Z,2.95
2022-12-03T15:58:35.483Z,4.07
2022-12-03T16:02:23.658Z,3.67
2022-12-03T16:06:05.994Z,3.60
2022-12-03T16:09:48.006Z,3.30
2022-12-03T16:13:29.911Z,3.35
2022-12-03T16:17:11.832Z,3.27
2022-12-03T16:20:53.697Z,3.55
2022-12-03T16:24:35.598Z,3.45
2022-12-03T16:28:17.642Z,2.80
2022-12-03T16:31:59.679Z,3.65
2022-12-03T16:35:41.581Z,3.63
2022-12-03T16:39:24.051Z,3.33
2022-12-03T16:43:06.103Z,3.67
2022-12-03T16:46:48.021Z,3.50
2022-12-03T16:50:30.613Z,3.53
2022-12-03T16:54:12.952Z,3.60
2022-12-03T16:57:54.841Z,3.67
2022-12-03T17:01:36.757Z,3.88
2022-12-03T17:05:18.938Z,4.00
2022-12-03T17:09:00.895Z,3.85
2022-12-03T17:13:08.395Z,3.70
2022-12-03T17:16:44.836Z,4.53
2022-12-03T17:20:26.806Z,3.90
2022-12-03T17:24:08.987Z,3.67
2022-12-03T17:27:50.912Z,3.90
2022-12-03T17:31:38.434Z,4.43
2022-12-03T17:35:23.502Z,4.05
2022-12-03T17:39:05.459Z,3.38
2022-12-03T17:42:47.345Z,3.60
2022-12-03T17:46:29.646Z,3.95
2022-12-03T17:50:11.863Z,4.45
2022-12-03T17:53:53.872Z,3.63
2022-12-03T17:57:35.773Z,4.72
2022-12-03T18:01:17.812Z,4.68
2022-12-03T18:04:59.766Z,4.68
2022-12-03T18:08:41.683Z,4.20
2022-12-03T18:12:23.639Z,4.47
2022-12-03T18:16:05.917Z,4.50
2022-12-03T18:19:47.864Z,4.80
2022-12-03T18:23:30.186Z,4.78
2022-12-03T18:27:12.209Z,4.82
2022-12-03T18:30:54.326Z,5.47
2022-12-03T18:34:36.237Z,5.43
2022-12-03T18:38:18.744Z,5.65
2022-12-03T18:42:00.956Z,5.90
2022-12-03T18:45:43.241Z,6.27
2022-12-03T18:49:25.216Z,6.20
2022-12-03T18:53:18.791Z,5.90
2022-12-03T18:57:00.731Z,6.27
2022-12-03T19:00:42.780Z,6.13
2022-12-03T19:04:24.811Z,6.18
2022-12-03T19:08:14.237Z,5.17
2022-12-03T19:11:56.197Z,5.10
2022-12-03T19:15:39.214Z,6.25
2022-12-03T19:19:21.119Z,5.63
2022-12-03T19:23:03.249Z,5.77
2022-12-03T19:26:45.485Z,5.65
2022-12-03T19:30:27.545Z,5.35
2022-12-03T19:34:09.486Z,6.67
2022-12-03T19:37:51.408Z,6.10
2022-12-03T19:41:33.411Z,7.35
2022-12-03T19:45:15.485Z,7.17
2022-12-03T19:48:57.891Z,6.10
2022-12-03T19:52:39.778Z,6.07
2022-12-03T19:56:22.432Z,6.60
2022-12-03T20:00:06.008Z,6.40
2022-12-03T20:03:50.001Z,6.47
2022-12-03T20:07:31.997Z,6.05
2022-12-03T20:11:20.110Z,5.80
2022-12-03T20:15:02.039Z,7.50
2022-12-03T20:18:45.931Z,7.30
2022-12-03T20:22:27.937Z,7.03
2022-12-03T20:26:13.289Z,7.40
2022-12-03T20:29:55.453Z,8.07
2022-12-03T20:33:38.401Z,8.70
2022-12-03T20:37:20.420Z,8.07
2022-12-03T20:41:10.001Z,7.55
2022-12-03T20:44:53.182Z,7.40
2022-12-03T20:48:35.471Z,6.63
2022-12-03T20:52:17.488Z,7.88
2022-12-03T20:56:01.243Z,7.53
2022-12-03T20:59:43.120Z,7.47
2022-12-03T21:03:25.061Z,7.18
2022-12-03T21:07:07.385Z,7.38
2022-12-03T21:10:49.302Z,7.25
2022-12-03T21:14:31.193Z,6.27
2022-12-03T21:18:15.678Z,6.63
2022-12-03T21:21:57.804Z,6.82
2022-12-03T21:25:39.917Z,6.37
2022-12-03T21:29:22.673Z,6.93
2022-12-03T21:33:04.948Z,7.40
2022-12-03T21:36:46.887Z,7.43
2022-12-03T21:40:28.764Z,6.35
2022-12-03T21:44:10.899Z,6.63
2022-12-03T21:47:52.936Z,7.95
2022-12-03T21:51:34.934Z,8.00
2022-12-03T21:55:17.092Z,6.47
2022-12-03T21:58:59.039Z,7.05
2022-12-03T22:02:41.043Z,7.30
2022-12-03T22:06:23.149Z,6.03
2022-12-03T22:10:07.854Z,6.78
2022-12-03T22:13:50.130Z,6.80
2022-12-03T22:17:31.952Z,6.63
2022-12-03T22:21:17.332Z,6.90
2022-12-03T22:24:59.189Z,7.05
2022-12-03T22:28:48.716Z,7.83
2022-12-03T22:32:30.570Z,7.43
2022-12-03T22:36:20.037Z,6.85
2022-12-03T22:40:03.509Z,7.60
2022-12-03T22:43:46.442Z,7.25
2022-12-03T22:47:28.306Z,6.75
2022-12-03T22:51:16.924Z,7.30
2022-12-03T22:54:58.821Z,6.95
2022-12-03T22:58:41.290Z,7.15
2022-12-03T23:02:23.214Z,6.45
2022-12-03T23:06:12.281Z,6.63
2022-12-03T23:09:54.291Z,7.53
2022-12-03T23:13:36.446Z,7.18
2022-12-03T23:17:18.376Z,8.07
2022-12-03T23:21:00.898Z,7.22
2022-12-03T23:24:42.959Z,7.32
2022-12-03T23:28:25.746Z,6.53
2022-12-03T23:32:07.644Z,6.93
2022-12-03T23:35:50.331Z,7.20
2022-12-03T23:39:32.384Z,7.13
2022-12-03T23:43:14.398Z,6.33
2022-12-03T23:46:56.334Z,6.88
2022-12-03T23:50:41.585Z,5.25
2022-12-03T23:54:23.557Z,6.07
2022-12-03T23:58:05.454Z,5.60
